sensor_id;sensor_type;location;lat;lon;timestamp;P1;durP1;ratioP1;P2;durP2;ratioP2
73023;SDS011;61199;47.526;8.538;2022-08-03T00:01:48;6.13;;;4.00;;
73023;SDS011;61199;47.526;8.538;2022-08-03T00:04:15;5.20;;;3.90;;
73023;SDS011;61199;47.526;8.538;2022-08-03T00:06:42;6.00;;;3.70;;
73023;SDS011;61199;47.526;8.538;2022-08-03T00:09:08;5.37;;;3.53;;
73023;SDS011;61199;47.526;8.538;2022-08-03T00:11:36;4.60;;;3.20;;
73023;SDS011;61199;47.526;8.538;2022-08-03T00:14:03;4.97;;;3.37;;
73023;SDS011;61199;47.526;8.538;2022-08-03T00:16:30;6.73;;;4.17;;
73023;SDS011;61199;47.526;8.538;2022-08-03T00:18:57;5.50;;;3.70;;
73023;SDS011;61199;47.526;8.538;2022-08-03T00:21:25;6.37;;;3.93;;
73023;SDS011;61199;47.526;8.538;2022-08-03T00:23:52;7.83;;;3.70;;
73023;SDS011;61199;47.526;8.538;2022-08-03T00:26:19;5.07;;;3.50;;
73023;SDS011;61199;47.526;8.538;2022-08-03T00:28:46;5.43;;;3.60;;
73023;SDS011;61199;47.526;8.538;2022-08-03T00:31:13;5.90;;;3.47;;
73023;SDS011;61199;47.526;8.538;2022-08-03T00:33:39;6.37;;;3.90;;
73023;SDS011;61199;47.526;8.538;2022-08-03T00:36:24;5.77;;;3.73;;
73023;SDS011;61199;47.526;8.538;2022-08-03T00:38:51;4.23;;;3.50;;
73023;SDS011;61199;47.526;8.538;2022-08-03T00:41:17;5.40;;;3.80;;
73023;SDS011;61199;47.526;8.538;2022-08-03T00:43:44;4.40;;;3.53;;
73023;SDS011;61199;47.526;8.538;2022-08-03T00:46:12;5.07;;;3.63;;
73023;SDS011;61199;47.526;8.538;2022-08-03T00:48:45;6.43;;;4.10;;
73023;SDS011;61199;47.526;8.538;2022-08-03T00:51:12;5.63;;;3.87;;
73023;SDS011;61199;47.526;8.538;2022-08-03T00:53:38;4.97;;;3.63;;
73023;SDS011;61199;47.526;8.538;2022-08-03T00:56:05;6.03;;;4.07;;
73023;SDS011;61199;47.526;8.538;2022-08-03T00:58:31;8.10;;;3.83;;
73023;SDS011;61199;47.526;8.538;2022-08-03T01:00:58;6.27;;;3.77;;
73023;SDS011;61199;47.526;8.538;2022-08-03T01:03:25;12.37;;;3.57;;
73023;SDS011;61199;47.526;8.538;2022-08-03T01:06:06;6.17;;;3.60;;
73023;SDS011;61199;47.526;8.538;2022-08-03T01:08:45;4.97;;;3.20;;
73023;SDS011;61199;47.526;8.538;2022-08-03T01:14:37;5.27;;;3.50;;
73023;SDS011;61199;47.526;8.538;2022-08-03T01:17:18;6.43;;;4.13;;
73023;SDS011;61199;47.526;8.538;2022-08-03T01:27:56;4.47;;;3.33;;
73023;SDS011;61199;47.526;8.538;2022-08-03T01:30:42;6.30;;;3.53;;
73023;SDS011;61199;47.526;8.538;2022-08-03T01:33:15;5.43;;;3.67;;
73023;SDS011;61199;47.526;8.538;2022-08-03T01:35:45;4.87;;;3.70;;
73023;SDS011;61199;47.526;8.538;2022-08-03T01:38:17;6.13;;;3.50;;
73023;SDS011;61199;47.526;8.538;2022-08-03T01:40:49;4.10;;;3.43;;
73023;SDS011;61199;47.526;8.538;2022-08-03T01:43:20;5.20;;;3.13;;
73023;SDS011;61199;47.526;8.538;2022-08-03T01:46:13;4.80;;;3.80;;
73023;SDS011;61199;47.526;8.538;2022-08-03T01:48:41;7.00;;;3.57;;
73023;SDS011;61199;47.526;8.538;2022-08-03T01:51:09;7.20;;;4.00;;
73023;SDS011;61199;47.526;8.538;2022-08-03T01:53:37;6.77;;;3.90;;
73023;SDS011;61199;47.526;8.538;2022-08-03T01:56:08;4.60;;;3.83;;
73023;SDS011;61199;47.526;8.538;2022-08-03T01:58:36;6.07;;;4.10;;
73023;SDS011;61199;47.526;8.538;2022-08-03T02:01:04;6.13;;;3.50;;
73023;SDS011;61199;47.526;8.538;2022-08-03T02:03:35;9.93;;;4.00;;
73023;SDS011;61199;47.526;8.538;2022-08-03T02:06:23;5.60;;;3.53;;
73023;SDS011;61199;47.526;8.538;2022-08-03T02:09:11;5.43;;;3.37;;
73023;SDS011;61199;47.526;8.538;2022-08-03T02:11:39;4.57;;;3.50;;
73023;SDS011;61199;47.526;8.538;2022-08-03T02:14:07;4.80;;;3.70;;
73023;SDS011;61199;47.526;8.538;2022-08-03T02:16:35;6.37;;;4.00;;
73023;SDS011;61199;47.526;8.538;2022-08-03T02:19:03;5.33;;;3.00;;
73023;SDS011;61199;47.526;8.538;2022-08-03T02:21:31;10.37;;;4.53;;
73023;SDS011;61199;47.526;8.538;2022-08-03T02:24:20;4.90;;;3.63;;
73023;SDS011;61199;47.526;8.538;2022-08-03T02:26:47;5.80;;;3.70;;
73023;SDS011;61199;47.526;8.538;2022-08-03T02:29:17;5.60;;;3.37;;
73023;SDS011;61199;47.526;8.538;2022-08-03T02:32:05;5.30;;;3.50;;
73023;SDS011;61199;47.526;8.538;2022-08-03T02:34:34;7.70;;;4.40;;
73023;SDS011;61199;47.526;8.538;2022-08-03T02:37:01;5.80;;;3.90;;
73023;SDS011;61199;47.526;8.538;2022-08-03T02:39:30;4.93;;;3.90;;
73023;SDS011;61199;47.526;8.538;2022-08-03T02:42:00;6.30;;;3.50;;
73023;SDS011;61199;47.526;8.538;2022-08-03T02:44:31;6.03;;;3.57;;
73023;SDS011;61199;47.526;8.538;2022-08-03T02:47:04;5.03;;;3.63;;
73023;SDS011;61199;47.526;8.538;2022-08-03T02:49:34;7.07;;;3.50;;
73023;SDS011;61199;47.526;8.538;2022-08-03T02:52:16;6.63;;;4.20;;
73023;SDS011;61199;47.526;8.538;2022-08-03T02:54:44;6.50;;;4.00;;
73023;SDS011;61199;47.526;8.538;2022-08-03T02:57:12;5.73;;;3.70;;
73023;SDS011;61199;47.526;8.538;2022-08-03T02:59:41;11.83;;;4.23;;
73023;SDS011;61199;47.526;8.538;2022-08-03T03:02:09;5.13;;;3.60;;
73023;SDS011;61199;47.526;8.538;2022-08-03T03:04:37;5.73;;;3.80;;
73023;SDS011;61199;47.526;8.538;2022-08-03T03:07:21;6.20;;;3.40;;
73023;SDS011;61199;47.526;8.538;2022-08-03T03:09:48;7.77;;;3.57;;
73023;SDS011;61199;47.526;8.538;2022-08-03T03:12:15;6.10;;;3.90;;
73023;SDS011;61199;47.526;8.538;2022-08-03T03:14:43;5.07;;;3.57;;
73023;SDS011;61199;47.526;8.538;2022-08-03T03:17:10;6.00;;;3.97;;
73023;SDS011;61199;47.526;8.538;2022-08-03T03:19:38;9.70;;;4.40;;
73023;SDS011;61199;47.526;8.538;2022-08-03T03:22:06;4.60;;;3.37;;
73023;SDS011;61199;47.526;8.538;2022-08-03T03:24:34;7.13;;;4.03;;
73023;SDS011;61199;47.526;8.538;2022-08-03T03:27:02;7.13;;;4.63;;
73023;SDS011;61199;47.526;8.538;2022-08-03T03:29:29;9.20;;;4.03;;
73023;SDS011;61199;47.526;8.538;2022-08-03T03:32:04;7.20;;;4.10;;
73023;SDS011;61199;47.526;8.538;2022-08-03T03:34:34;7.60;;;3.70;;
73023;SDS011;61199;47.526;8.538;2022-08-03T03:37:02;4.13;;;3.50;;
73023;SDS011;61199;47.526;8.538;2022-08-03T03:39:28;7.67;;;3.47;;
73023;SDS011;61199;47.526;8.538;2022-08-03T03:41:55;6.37;;;4.47;;
73023;SDS011;61199;47.526;8.538;2022-08-03T03:44:25;11.40;;;4.37;;
73023;SDS011;61199;47.526;8.538;2022-08-03T03:46:54;4.50;;;3.50;;
73023;SDS011;61199;47.526;8.538;2022-08-03T03:49:22;9.80;;;4.93;;
73023;SDS011;61199;47.526;8.538;2022-08-03T03:51:51;6.37;;;3.83;;
73023;SDS011;61199;47.526;8.538;2022-08-03T03:54:18;6.30;;;3.67;;
73023;SDS011;61199;47.526;8.538;2022-08-03T03:56:45;7.60;;;4.30;;
73023;SDS011;61199;47.526;8.538;2022-08-03T03:59:12;7.50;;;4.63;;
73023;SDS011;61199;47.526;8.538;2022-08-03T04:01:39;7.47;;;3.97;;
73023;SDS011;61199;47.526;8.538;2022-08-03T04:04:05;4.60;;;3.83;;
73023;SDS011;61199;47.526;8.538;2022-08-03T04:06:50;7.80;;;4.63;;
73023;SDS011;61199;47.526;8.538;2022-08-03T04:09:35;7.03;;;3.87;;
73023;SDS011;61199;47.526;8.538;2022-08-03T04:12:33;5.90;;;3.67;;
73023;SDS011;61199;47.526;8.538;2022-08-03T04:15:01;5.03;;;3.63;;
73023;SDS011;61199;47.526;8.538;2022-08-03T04:17:29;4.93;;;4.17;;
73023;SDS011;61199;47.526;8.538;2022-08-03T04:19:57;6.10;;;4.20;;
73023;SDS011;61199;47.526;8.538;2022-08-03T04:22:28;7.70;;;4.47;;
73023;SDS011;61199;47.526;8.538;2022-08-03T04:24:59;5.50;;;3.87;;
73023;SDS011;61199;47.526;8.538;2022-08-03T04:27:29;7.00;;;4.17;;
73023;SDS011;61199;47.526;8.538;2022-08-03T04:29:59;9.00;;;4.30;;
73023;SDS011;61199;47.526;8.538;2022-08-03T04:32:29;7.03;;;3.43;;
73023;SDS011;61199;47.526;8.538;2022-08-03T04:34:56;6.90;;;4.53;;
73023;SDS011;61199;47.526;8.538;2022-08-03T04:37:25;8.70;;;4.33;;
73023;SDS011;61199;47.526;8.538;2022-08-03T04:40:00;9.70;;;4.30;;
73023;SDS011;61199;47.526;8.538;2022-08-03T04:42:30;7.60;;;5.50;;
73023;SDS011;61199;47.526;8.538;2022-08-03T04:44:58;6.97;;;4.63;;
73023;SDS011;61199;47.526;8.538;2022-08-03T04:47:28;5.73;;;4.53;;
73023;SDS011;61199;47.526;8.538;2022-08-03T04:49:59;7.47;;;4.30;;
73023;SDS011;61199;47.526;8.538;2022-08-03T04:52:26;11.40;;;4.90;;
73023;SDS011;61199;47.526;8.538;2022-08-03T04:54:53;6.27;;;4.43;;
73023;SDS011;61199;47.526;8.538;2022-08-03T04:57:19;5.90;;;4.20;;
73023;SDS011;61199;47.526;8.538;2022-08-03T04:59:48;7.17;;;3.77;;
73023;SDS011;61199;47.526;8.538;2022-08-03T05:02:27;8.17;;;4.60;;
73023;SDS011;61199;47.526;8.538;2022-08-03T05:04:54;6.73;;;4.23;;
73023;SDS011;61199;47.526;8.538;2022-08-03T05:07:20;6.67;;;4.53;;
73023;SDS011;61199;47.526;8.538;2022-08-03T05:09:50;7.93;;;4.40;;
73023;SDS011;61199;47.526;8.538;2022-08-03T05:12:18;8.07;;;3.97;;
73023;SDS011;61199;47.526;8.538;2022-08-03T05:14:44;7.50;;;4.40;;
73023;SDS011;61199;47.526;8.538;2022-08-03T05:17:10;10.60;;;5.13;;
73023;SDS011;61199;47.526;8.538;2022-08-03T05:19:37;7.33;;;4.70;;
73023;SDS011;61199;47.526;8.538;2022-08-03T05:22:03;7.17;;;4.40;;
73023;SDS011;61199;47.526;8.538;2022-08-03T05:24:29;13.33;;;4.77;;
73023;SDS011;61199;47.526;8.538;2022-08-03T05:26:56;6.87;;;4.60;;
73023;SDS011;61199;47.526;8.538;2022-08-03T05:29:22;10.03;;;4.53;;
73023;SDS011;61199;47.526;8.538;2022-08-03T05:31:49;10.67;;;4.33;;
73023;SDS011;61199;47.526;8.538;2022-08-03T05:34:15;9.60;;;4.30;;
73023;SDS011;61199;47.526;8.538;2022-08-03T05:36:41;8.33;;;4.50;;
73023;SDS011;61199;47.526;8.538;2022-08-03T05:39:07;7.70;;;4.77;;
73023;SDS011;61199;47.526;8.538;2022-08-03T05:41:34;6.23;;;4.23;;
73023;SDS011;61199;47.526;8.538;2022-08-03T05:44:02;7.13;;;4.60;;
73023;SDS011;61199;47.526;8.538;2022-08-03T05:46:29;14.30;;;5.20;;
73023;SDS011;61199;47.526;8.538;2022-08-03T05:48:55;16.53;;;4.60;;
73023;SDS011;61199;47.526;8.538;2022-08-03T05:51:22;36.57;;;6.03;;
73023;SDS011;61199;47.526;8.538;2022-08-03T05:53:48;25.27;;;5.37;;
73023;SDS011;61199;47.526;8.538;2022-08-03T05:56:14;18.73;;;5.13;;
73023;SDS011;61199;47.526;8.538;2022-08-03T05:58:45;19.37;;;4.47;;
73023;SDS011;61199;47.526;8.538;2022-08-03T06:01:13;9.20;;;4.60;;
73023;SDS011;61199;47.526;8.538;2022-08-03T06:03:40;10.70;;;4.40;;
73023;SDS011;61199;47.526;8.538;2022-08-03T06:06:07;6.67;;;3.90;;
73023;SDS011;61199;47.526;8.538;2022-08-03T06:08:33;7.83;;;4.20;;
73023;SDS011;61199;47.526;8.538;2022-08-03T06:11:00;7.70;;;4.13;;
73023;SDS011;61199;47.526;8.538;2022-08-03T06:13:26;10.17;;;5.83;;
73023;SDS011;61199;47.526;8.538;2022-08-03T06:15:53;6.20;;;4.23;;
73023;SDS011;61199;47.526;8.538;2022-08-03T06:18:19;7.63;;;4.63;;
73023;SDS011;61199;47.526;8.538;2022-08-03T06:20:45;7.53;;;4.50;;
73023;SDS011;61199;47.526;8.538;2022-08-03T06:23:15;8.27;;;4.93;;
73023;SDS011;61199;47.526;8.538;2022-08-03T06:25:44;7.07;;;4.77;;
73023;SDS011;61199;47.526;8.538;2022-08-03T06:28:11;7.70;;;5.00;;
73023;SDS011;61199;47.526;8.538;2022-08-03T06:31:03;8.20;;;4.60;;
73023;SDS011;61199;47.526;8.538;2022-08-03T06:33:31;9.67;;;5.10;;
73023;SDS011;61199;47.526;8.538;2022-08-03T06:36:18;7.20;;;4.50;;
73023;SDS011;61199;47.526;8.538;2022-08-03T06:38:44;7.90;;;4.67;;
73023;SDS011;61199;47.526;8.538;2022-08-03T06:41:11;10.40;;;4.70;;
73023;SDS011;61199;47.526;8.538;2022-08-03T06:43:37;11.63;;;5.30;;
73023;SDS011;61199;47.526;8.538;2022-08-03T06:46:24;11.00;;;4.23;;
73023;SDS011;61199;47.526;8.538;2022-08-03T06:48:51;10.80;;;5.50;;
73023;SDS011;61199;47.526;8.538;2022-08-03T06:51:18;7.00;;;4.70;;
73023;SDS011;61199;47.526;8.538;2022-08-03T06:53:44;7.27;;;4.40;;
73023;SDS011;61199;47.526;8.538;2022-08-03T06:56:10;12.30;;;6.10;;
73023;SDS011;61199;47.526;8.538;2022-08-03T06:58:37;9.53;;;4.97;;
73023;SDS011;61199;47.526;8.538;2022-08-03T07:01:03;8.60;;;4.87;;
73023;SDS011;61199;47.526;8.538;2022-08-03T07:03:29;14.57;;;5.47;;
73023;SDS011;61199;47.526;8.538;2022-08-03T07:05:56;9.00;;;5.30;;
73023;SDS011;61199;47.526;8.538;2022-08-03T07:08:22;8.50;;;4.77;;
73023;SDS011;61199;47.526;8.538;2022-08-03T07:10:59;9.90;;;5.30;;
73023;SDS011;61199;47.526;8.538;2022-08-03T07:13:26;12.43;;;5.30;;
73023;SDS011;61199;47.526;8.538;2022-08-03T07:15:52;14.33;;;5.70;;
73023;SDS011;61199;47.526;8.538;2022-08-03T07:18:21;13.30;;;5.67;;
73023;SDS011;61199;47.526;8.538;2022-08-03T07:20:55;7.60;;;4.90;;
73023;SDS011;61199;47.526;8.538;2022-08-03T07:23:22;12.53;;;4.90;;
73023;SDS011;61199;47.526;8.538;2022-08-03T07:25:48;8.67;;;4.53;;
73023;SDS011;61199;47.526;8.538;2022-08-03T07:28:15;10.43;;;4.87;;
73023;SDS011;61199;47.526;8.538;2022-08-03T07:30:42;7.60;;;5.07;;
73023;SDS011;61199;47.526;8.538;2022-08-03T07:33:08;7.23;;;4.87;;
73023;SDS011;61199;47.526;8.538;2022-08-03T07:35:34;7.83;;;4.67;;
73023;SDS011;61199;47.526;8.538;2022-08-03T07:38:01;10.90;;;4.80;;
73023;SDS011;61199;47.526;8.538;2022-08-03T07:40:27;6.60;;;4.70;;
73023;SDS011;61199;47.526;8.538;2022-08-03T07:42:57;9.73;;;5.07;;
73023;SDS011;61199;47.526;8.538;2022-08-03T07:45:24;6.60;;;4.60;;
73023;SDS011;61199;47.526;8.538;2022-08-03T07:47:51;12.63;;;4.40;;
73023;SDS011;61199;47.526;8.538;2022-08-03T07:50:20;8.23;;;4.70;;
73023;SDS011;61199;47.526;8.538;2022-08-03T07:52:48;9.57;;;5.30;;
73023;SDS011;61199;47.526;8.538;2022-08-03T07:55:19;7.50;;;4.93;;
73023;SDS011;61199;47.526;8.538;2022-08-03T07:58:07;8.90;;;4.77;;
73023;SDS011;61199;47.526;8.538;2022-08-03T08:00:44;4.70;;;3.87;;
73023;SDS011;61199;47.526;8.538;2022-08-03T08:03:10;8.20;;;4.20;;
73023;SDS011;61199;47.526;8.538;2022-08-03T08:05:38;5.80;;;4.43;;
73023;SDS011;61199;47.526;8.538;2022-08-03T08:08:05;7.83;;;4.60;;
73023;SDS011;61199;47.526;8.538;2022-08-03T08:10:31;7.20;;;4.77;;
73023;SDS011;61199;47.526;8.538;2022-08-03T08:12:58;9.33;;;5.60;;
73023;SDS011;61199;47.526;8.538;2022-08-03T08:15:25;7.80;;;4.60;;
73023;SDS011;61199;47.526;8.538;2022-08-03T08:17:52;10.80;;;5.43;;
73023;SDS011;61199;47.526;8.538;2022-08-03T08:20:22;8.83;;;4.97;;
73023;SDS011;61199;47.526;8.538;2022-08-03T08:23:00;7.13;;;4.23;;
73023;SDS011;61199;47.526;8.538;2022-08-03T08:25:37;11.53;;;4.23;;
73023;SDS011;61199;47.526;8.538;2022-08-03T08:28:03;9.40;;;4.23;;
73023;SDS011;61199;47.526;8.538;2022-08-03T08:30:50;7.20;;;4.90;;
73023;SDS011;61199;47.526;8.538;2022-08-03T08:33:16;9.80;;;4.10;;
73023;SDS011;61199;47.526;8.538;2022-08-03T08:35:49;7.50;;;4.50;;
73023;SDS011;61199;47.526;8.538;2022-08-03T08:38:16;7.07;;;4.27;;
73023;SDS011;61199;47.526;8.538;2022-08-03T08:40:43;8.60;;;5.77;;
73023;SDS011;61199;47.526;8.538;2022-08-03T08:43:09;6.70;;;5.30;;
73023;SDS011;61199;47.526;8.538;2022-08-03T08:45:35;7.53;;;4.63;;
73023;SDS011;61199;47.526;8.538;2022-08-03T08:48:02;12.27;;;4.17;;
73023;SDS011;61199;47.526;8.538;2022-08-03T08:50:33;9.20;;;5.73;;
73023;SDS011;61199;47.526;8.538;2022-08-03T08:53:02;8.70;;;4.80;;
73023;SDS011;61199;47.526;8.538;2022-08-03T08:55:35;6.87;;;4.10;;
73023;SDS011;61199;47.526;8.538;2022-08-03T08:58:22;6.73;;;4.20;;
73023;SDS011;61199;47.526;8.538;2022-08-03T09:00:50;6.97;;;4.80;;
73023;SDS011;61199;47.526;8.538;2022-08-03T09:03:16;8.60;;;4.70;;
73023;SDS011;61199;47.526;8.538;2022-08-03T09:05:54;8.63;;;5.53;;
73023;SDS011;61199;47.526;8.538;2022-08-03T09:08:21;7.40;;;4.27;;
73023;SDS011;61199;47.526;8.538;2022-08-03T09:10:48;6.23;;;4.00;;
73023;SDS011;61199;47.526;8.538;2022-08-03T09:13:14;5.57;;;3.70;;
73023;SDS011;61199;47.526;8.538;2022-08-03T09:15:43;8.30;;;5.50;;
73023;SDS011;61199;47.526;8.538;2022-08-03T09:18:27;7.30;;;4.57;;
73023;SDS011;61199;47.526;8.538;2022-08-03T09:21:11;7.20;;;4.20;;
73023;SDS011;61199;47.526;8.538;2022-08-03T09:24:00;10.23;;;4.70;;
73023;SDS011;61199;47.526;8.538;2022-08-03T09:26:32;7.10;;;4.73;;
73023;SDS011;61199;47.526;8.538;2022-08-03T09:29:04;7.60;;;4.47;;
73023;SDS011;61199;47.526;8.538;2022-08-03T09:31:41;6.00;;;4.00;;
73023;SDS011;61199;47.526;8.538;2022-08-03T09:34:10;7.43;;;3.90;;
73023;SDS011;61199;47.526;8.538;2022-08-03T09:36:45;8.60;;;4.53;;
73023;SDS011;61199;47.526;8.538;2022-08-03T09:39:17;7.47;;;3.90;;
73023;SDS011;61199;47.526;8.538;2022-08-03T09:44:45;9.33;;;4.50;;
73023;SDS011;61199;47.526;8.538;2022-08-03T09:47:15;5.70;;;3.77;;
73023;SDS011;61199;47.526;8.538;2022-08-03T09:50:00;5.20;;;4.17;;
73023;SDS011;61199;47.526;8.538;2022-08-03T09:52:32;5.90;;;4.03;;
73023;SDS011;61199;47.526;8.538;2022-08-03T09:55:15;5.60;;;4.00;;
73023;SDS011;61199;47.526;8.538;2022-08-03T09:58:06;6.30;;;4.20;;
73023;SDS011;61199;47.526;8.538;2022-08-03T10:03:32;7.60;;;4.33;;
73023;SDS011;61199;47.526;8.538;2022-08-03T10:06:15;9.00;;;4.50;;
73023;SDS011;61199;47.526;8.538;2022-08-03T10:09:07;8.43;;;4.13;;
73023;SDS011;61199;47.526;8.538;2022-08-03T10:11:34;6.60;;;4.60;;
73023;SDS011;61199;47.526;8.538;2022-08-03T10:14:07;7.57;;;4.80;;
73023;SDS011;61199;47.526;8.538;2022-08-03T10:16:36;8.60;;;4.63;;
73023;SDS011;61199;47.526;8.538;2022-08-03T10:19:04;5.03;;;3.57;;
73023;SDS011;61199;47.526;8.538;2022-08-03T10:21:36;16.77;;;3.70;;
73023;SDS011;61199;47.526;8.538;2022-08-03T10:24:05;9.07;;;4.33;;
73023;SDS011;61199;47.526;8.538;2022-08-03T10:26:39;7.20;;;3.60;;
73023;SDS011;61199;47.526;8.538;2022-08-03T10:29:17;5.20;;;3.77;;
73023;SDS011;61199;47.526;8.538;2022-08-03T10:31:47;4.57;;;3.50;;
73023;SDS011;61199;47.526;8.538;2022-08-03T10:34:25;8.57;;;4.20;;
73023;SDS011;61199;47.526;8.538;2022-08-03T10:36:55;5.87;;;3.90;;
73023;SDS011;61199;47.526;8.538;2022-08-03T10:39:26;7.70;;;4.00;;
73023;SDS011;61199;47.526;8.538;2022-08-03T10:41:54;11.43;;;3.83;;
73023;SDS011;61199;47.526;8.538;2022-08-03T10:44:25;13.17;;;4.17;;
73023;SDS011;61199;47.526;8.538;2022-08-03T10:46:58;6.00;;;4.20;;
73023;SDS011;61199;47.526;8.538;2022-08-03T10:49:24;6.10;;;3.80;;
73023;SDS011;61199;47.526;8.538;2022-08-03T10:52:00;5.93;;;3.80;;
73023;SDS011;61199;47.526;8.538;2022-08-03T10:54:41;5.63;;;4.03;;
73023;SDS011;61199;47.526;8.538;2022-08-03T11:00:07;5.97;;;3.53;;
73023;SDS011;61199;47.526;8.538;2022-08-03T11:05:29;13.63;;;4.50;;
73023;SDS011;61199;47.526;8.538;2022-08-03T11:10:47;4.00;;;3.43;;
73023;SDS011;61199;47.526;8.538;2022-08-03T11:13:16;5.20;;;3.67;;
73023;SDS011;61199;47.526;8.538;2022-08-03T11:15:49;5.20;;;3.70;;
73023;SDS011;61199;47.526;8.538;2022-08-03T11:18:17;4.60;;;3.20;;
73023;SDS011;61199;47.526;8.538;2022-08-03T11:23:40;4.80;;;3.80;;
73023;SDS011;61199;47.526;8.538;2022-08-03T11:26:27;5.40;;;3.83;;
73023;SDS011;61199;47.526;8.538;2022-08-03T11:29:10;6.17;;;3.90;;
73023;SDS011;61199;47.526;8.538;2022-08-03T11:31:53;9.53;;;3.50;;
73023;SDS011;61199;47.526;8.538;2022-08-03T11:34:20;5.67;;;4.47;;
73023;SDS011;61199;47.526;8.538;2022-08-03T11:39:47;6.47;;;3.47;;
73023;SDS011;61199;47.526;8.538;2022-08-03T11:44:52;5.10;;;3.53;;
73023;SDS011;61199;47.526;8.538;2022-08-03T11:47:23;6.50;;;3.10;;
73023;SDS011;61199;47.526;8.538;2022-08-03T11:49:58;5.77;;;3.80;;
73023;SDS011;61199;47.526;8.538;2022-08-03T11:52:33;8.50;;;3.50;;
73023;SDS011;61199;47.526;8.538;2022-08-03T11:55:00;8.77;;;3.80;;
73023;SDS011;61199;47.526;8.538;2022-08-03T11:57:28;7.43;;;3.50;;
73023;SDS011;61199;47.526;8.538;2022-08-03T12:00:30;5.57;;;3.00;;
73023;SDS011;61199;47.526;8.538;2022-08-03T12:03:08;5.70;;;3.33;;
73023;SDS011;61199;47.526;8.538;2022-08-03T12:05:41;7.90;;;3.20;;
73023;SDS011;61199;47.526;8.538;2022-08-03T12:08:39;3.50;;;2.90;;
73023;SDS011;61199;47.526;8.538;2022-08-03T12:11:05;6.33;;;2.80;;
73023;SDS011;61199;47.526;8.538;2022-08-03T12:13:40;5.10;;;2.90;;
73023;SDS011;61199;47.526;8.538;2022-08-03T12:16:32;5.67;;;3.00;;
73023;SDS011;61199;47.526;8.538;2022-08-03T12:19:02;4.70;;;2.53;;
73023;SDS011;61199;47.526;8.538;2022-08-03T12:21:30;5.20;;;2.30;;
73023;SDS011;61199;47.526;8.538;2022-08-03T12:23:58;5.03;;;2.40;;
73023;SDS011;61199;47.526;8.538;2022-08-03T12:26:29;6.30;;;2.80;;
73023;SDS011;61199;47.526;8.538;2022-08-03T12:29:07;8.80;;;2.30;;
73023;SDS011;61199;47.526;8.538;2022-08-03T12:31:44;2.97;;;2.47;;
73023;SDS011;61199;47.526;8.538;2022-08-03T12:34:11;5.47;;;2.80;;
73023;SDS011;61199;47.526;8.538;2022-08-03T12:36:48;3.97;;;2.73;;
73023;SDS011;61199;47.526;8.538;2022-08-03T12:39:16;6.17;;;3.07;;
73023;SDS011;61199;47.526;8.538;2022-08-03T12:41:51;6.63;;;2.77;;
73023;SDS011;61199;47.526;8.538;2022-08-03T12:44:27;6.13;;;2.93;;
73023;SDS011;61199;47.526;8.538;2022-08-03T12:46:58;5.20;;;2.73;;
73023;SDS011;61199;47.526;8.538;2022-08-03T12:49:26;5.00;;;2.90;;
73023;SDS011;61199;47.526;8.538;2022-08-03T12:54:21;3.13;;;2.50;;
73023;SDS011;61199;47.526;8.538;2022-08-03T12:57:03;26.73;;;3.40;;
73023;SDS011;61199;47.526;8.538;2022-08-03T12:59:30;4.30;;;2.87;;
73023;SDS011;61199;47.526;8.538;2022-08-03T13:02:18;4.50;;;3.03;;
73023;SDS011;61199;47.526;8.538;2022-08-03T13:04:49;4.43;;;3.10;;
73023;SDS011;61199;47.526;8.538;2022-08-03T13:07:16;14.93;;;5.60;;
73023;SDS011;61199;47.526;8.538;2022-08-03T13:09:49;8.23;;;2.53;;
73023;SDS011;61199;47.526;8.538;2022-08-03T13:12:18;6.30;;;3.13;;
73023;SDS011;61199;47.526;8.538;2022-08-03T13:14:48;3.90;;;2.80;;
73023;SDS011;61199;47.526;8.538;2022-08-03T13:17:15;7.37;;;3.03;;
73023;SDS011;61199;47.526;8.538;2022-08-03T13:19:43;7.17;;;3.17;;
73023;SDS011;61199;47.526;8.538;2022-08-03T13:24:48;10.10;;;4.27;;
73023;SDS011;61199;47.526;8.538;2022-08-03T13:27:17;7.13;;;2.90;;
73023;SDS011;61199;47.526;8.538;2022-08-03T13:30:04;8.90;;;2.77;;
73023;SDS011;61199;47.526;8.538;2022-08-03T13:32:32;5.93;;;2.77;;
73023;SDS011;61199;47.526;8.538;2022-08-03T13:34:58;8.83;;;3.20;;
73023;SDS011;61199;47.526;8.538;2022-08-03T13:37:25;7.60;;;3.63;;
73023;SDS011;61199;47.526;8.538;2022-08-03T13:39:52;8.17;;;3.70;;
73023;SDS011;61199;47.526;8.538;2022-08-03T13:42:29;6.93;;;3.07;;
73023;SDS011;61199;47.526;8.538;2022-08-03T13:44:57;7.90;;;4.17;;
73023;SDS011;61199;47.526;8.538;2022-08-03T13:47:24;7.07;;;3.20;;
73023;SDS011;61199;47.526;8.538;2022-08-03T13:49:52;4.83;;;3.37;;
73023;SDS011;61199;47.526;8.538;2022-08-03T13:52:27;8.47;;;3.30;;
73023;SDS011;61199;47.526;8.538;2022-08-03T13:55:03;4.20;;;3.57;;
73023;SDS011;61199;47.526;8.538;2022-08-03T13:57:31;7.57;;;3.07;;
73023;SDS011;61199;47.526;8.538;2022-08-03T14:00:18;5.00;;;2.77;;
73023;SDS011;61199;47.526;8.538;2022-08-03T14:02:53;9.73;;;2.73;;
73023;SDS011;61199;47.526;8.538;2022-08-03T14:05:29;4.93;;;2.70;;
73023;SDS011;61199;47.526;8.538;2022-08-03T14:07:57;7.77;;;2.83;;
73023;SDS011;61199;47.526;8.538;2022-08-03T14:10:30;3.40;;;2.50;;
73023;SDS011;61199;47.526;8.538;2022-08-03T14:13:01;3.50;;;2.43;;
73023;SDS011;61199;47.526;8.538;2022-08-03T14:15:27;5.43;;;2.30;;
73023;SDS011;61199;47.526;8.538;2022-08-03T14:17:54;11.10;;;2.20;;
73023;SDS011;61199;47.526;8.538;2022-08-03T14:20:24;5.60;;;2.70;;
73023;SDS011;61199;47.526;8.538;2022-08-03T14:23:10;2.90;;;2.20;;
73023;SDS011;61199;47.526;8.538;2022-08-03T14:25:39;4.27;;;2.10;;
73023;SDS011;61199;47.526;8.538;2022-08-03T14:28:18;3.43;;;2.10;;
73023;SDS011;61199;47.526;8.538;2022-08-03T14:30:47;7.30;;;2.70;;
73023;SDS011;61199;47.526;8.538;2022-08-03T14:33:14;3.13;;;2.37;;
73023;SDS011;61199;47.526;8.538;2022-08-03T14:35:40;4.00;;;2.43;;
73023;SDS011;61199;47.526;8.538;2022-08-03T14:38:07;6.70;;;3.00;;
73023;SDS011;61199;47.526;8.538;2022-08-03T14:40:33;3.20;;;2.40;;
73023;SDS011;61199;47.526;8.538;2022-08-03T14:43:00;6.10;;;2.60;;
73023;SDS011;61199;47.526;8.538;2022-08-03T14:45:27;2.30;;;1.80;;
73023;SDS011;61199;47.526;8.538;2022-08-03T14:47:53;3.00;;;2.10;;
73023;SDS011;61199;47.526;8.538;2022-08-03T14:50:40;2.50;;;2.10;;
73023;SDS011;61199;47.526;8.538;2022-08-03T14:53:14;3.80;;;2.17;;
73023;SDS011;61199;47.526;8.538;2022-08-03T14:55:42;8.27;;;2.40;;
73023;SDS011;61199;47.526;8.538;2022-08-03T14:58:16;2.10;;;1.50;;
73023;SDS011;61199;47.526;8.538;2022-08-03T15:00:47;2.57;;;1.87;;
73023;SDS011;61199;47.526;8.538;2022-08-03T15:03:14;3.43;;;1.67;;
73023;SDS011;61199;47.526;8.538;2022-08-03T15:05:42;5.13;;;2.10;;
73023;SDS011;61199;47.526;8.538;2022-08-03T15:08:09;4.30;;;1.90;;
73023;SDS011;61199;47.526;8.538;2022-08-03T15:10:36;2.07;;;1.50;;
73023;SDS011;61199;47.526;8.538;2022-08-03T15:13:09;2.70;;;1.70;;
73023;SDS011;61199;47.526;8.538;2022-08-03T15:15:36;3.77;;;1.83;;
73023;SDS011;61199;47.526;8.538;2022-08-03T15:18:02;5.37;;;2.03;;
73023;SDS011;61199;47.526;8.538;2022-08-03T15:20:29;4.10;;;2.03;;
73023;SDS011;61199;47.526;8.538;2022-08-03T15:23:09;7.13;;;2.40;;
73023;SDS011;61199;47.526;8.538;2022-08-03T15:25:36;4.73;;;1.77;;
73023;SDS011;61199;47.526;8.538;2022-08-03T15:28:23;3.50;;;2.10;;
73023;SDS011;61199;47.526;8.538;2022-08-03T15:30:52;6.43;;;1.90;;
73023;SDS011;61199;47.526;8.538;2022-08-03T15:33:19;2.73;;;2.33;;
73023;SDS011;61199;47.526;8.538;2022-08-03T15:35:46;4.50;;;2.20;;
73023;SDS011;61199;47.526;8.538;2022-08-03T15:38:12;5.90;;;2.30;;
73023;SDS011;61199;47.526;8.538;2022-08-03T15:40:39;5.13;;;2.00;;
73023;SDS011;61199;47.526;8.538;2022-08-03T15:43:06;2.40;;;1.70;;
73023;SDS011;61199;47.526;8.538;2022-08-03T15:45:32;1.67;;;1.50;;
73023;SDS011;61199;47.526;8.538;2022-08-03T15:48:01;3.33;;;2.03;;